Time;durP1;ratioP1;P1;durP2;ratioP2;P2;SDS_P1;SDS_P2;PMS_P1;PMS_P2;Temp;Humidity;BMP_temperature;BMP_pressure;BME280_temperature;BME280_humidity;BME280_pressure;Samples;Min_cycle;Max_cycle;Signal;HPM_P1;HPM_P2
2022/09/28 00:00:23;;;;;;;;;;;;;;;6.65;100.00;96455.59;5007630;28;19930;-44
2022/09/28 00:02:52;;;;;;;;;;;;;;;6.63;100.00;96456.66;5005492;28;19934;-44
2022/09/28 00:05:20;;;;;;;;;;;;;;;6.60;100.00;96459.50;5009327;28;19926;-43
2022/09/28 00:07:47;;;;;;;;;;;;;;;6.59;100.00;96452.63;5009643;28;19929;-44
2022/09/28 00:10:14;;;;;;;;;;;;;;;6.56;100.00;96448.47;5003075;28;19925;-45
2022/09/28 00:12:42;;;;;;;;;;;;;;;6.57;100.00;96446.66;5010064;28;20648;-44
2022/09/28 00:15:09;;;;;;;;;;;;;;;6.52;100.00;96444.41;5010166;28;19992;-45
2022/09/28 00:17:36;;;;;;;;;;;;;;;6.52;100.00;96446.16;5009000;28;20369;-44
2022/09/28 00:20:05;;;;;;;;;;;;;;;6.53;100.00;96446.06;5007498;28;20296;-44
2022/09/28 00:22:32;;;;;;;;;;;;;;;6.49;100.00;96444.63;5006454;28;19932;-44
2022/09/28 00:24:59;;;;;;;;;;;;;;;6.48;100.00;96442.97;5006894;28;19925;-44
2022/09/28 00:27:27;;;;;;;;;;;;;;;6.49;100.00;96443.78;5006796;28;20296;-44
2022/09/28 00:29:54;;;;;;;;;;;;;;;6.47;100.00;96443.88;5007495;28;19935;-44
2022/09/28 00:32:23;;;;;;;;;;;;;;;6.44;100.00;96446.75;5002855;28;19965;-44
2022/09/28 00:34:51;;;;;;;;;;;;;;;6.37;100.00;96450.75;5008276;28;20023;-47
2022/09/28 00:37:20;;;;;;;;;;;;;;;6.30;100.00;96452.13;5002395;28;19953;-45
2022/09/28 00:39:48;;;;;;;;;;;;;;;6.30;100.00;96449.53;4991950;28;19933;-45
2022/09/28 00:42:16;;;;;;;;;;;;;;;6.12;100.00;96447.38;4991418;28;19926;-47
2022/09/28 00:44:48;;;;;;;;;;;;;;;6.21;100.00;96454.56;5002548;28;19930;-44
2022/09/28 00:47:21;;;;;;;;;;;;;;;6.02;100.00;96455.03;5000700;28;19975;-44
2022/09/28 00:49:52;;;;;;;;;;;;;;;5.96;100.00;96465.09;4999692;28;20016;-48
2022/09/28 00:52:22;;;;;;;;;;;;;;;5.84;100.00;96452.88;5009646;28;20376;-45
2022/09/28 00:54:51;;;;;;;;;;;;;;;5.80;100.00;96454.84;5009217;28;20012;-44
2022/09/28 00:57:19;;;;;;;;;;;;;;;5.74;100.00;96452.69;5004060;28;19949;-45
2022/09/28 00:59:46;;;;;;;;;;;;;;;5.75;100.00;96456.13;4979053;28;19925;-44
2022/09/28 01:02:14;;;;;;;;;;;;;;;5.65;100.00;96449.88;4981408;28;20059;-45
2022/09/28 01:04:41;;;;;;;;;;;;;;;5.61;100.00;96457.09;4986683;28;19932;-44
2022/09/28 01:07:10;;;;;;;;;;;;;;;5.65;100.00;96445.50;4984919;28;19926;-44
2022/09/28 01:09:39;;;;;;;;;;;;;;;5.62;100.00;96443.09;5009325;28;20008;-45
2022/09/28 01:12:08;;;;;;;;;;;;;;;5.58;100.00;96438.22;4991741;28;20336;-46
2022/09/28 01:14:35;;;;;;;;;;;;;;;5.55;100.00;96441.03;5006642;28;20479;-44
2022/09/28 01:17:07;;;;;;;;;;;;;;;5.54;100.00;96437.56;5007839;28;19926;-44
2022/09/28 01:19:55;;;;;;;;;;;;;;;5.59;100.00;96447.69;4987567;28;19929;-45
2022/09/28 01:22:28;;;;;;;;;;;;;;;5.54;100.00;96458.44;4932617;29;19934;-44
2022/09/28 01:25:01;;;;;;;;;;;;;;;5.42;100.00;96459.28;4939344;29;20328;-44
2022/09/28 01:27:33;;;;;;;;;;;;;;;5.41;100.00;96456.78;4927500;29;19927;-44
2022/09/28 01:30:03;;;;;;;;;;;;;;;5.36;100.00;96451.88;4946137;29;19934;-45
2022/09/28 01:32:36;;;;;;;;;;;;;;;5.34;100.00;96450.31;4929632;29;19927;-46
2022/09/28 01:35:08;;;;;;;;;;;;;;;5.23;100.00;96458.88;4929756;29;19926;-46
2022/09/28 01:37:40;;;;;;;;;;;;;;;5.22;100.00;96449.38;4943833;28;19939;-44
2022/09/28 01:40:09;;;;;;;;;;;;;;;5.19;100.00;96447.00;4926550;29;20013;-44
2022/09/28 01:42:39;;;;;;;;;;;;;;;5.27;100.00;96447.31;4944112;29;20386;-43
2022/09/28 01:45:10;;;;;;;;;;;;;;;5.19;100.00;96436.56;4930129;29;19926;-43
2022/09/28 01:47:40;;;;;;;;;;;;;;;5.23;100.00;96443.25;4936720;29;19927;-44
2022/09/28 01:50:12;;;;;;;;;;;;;;;5.28;100.00;96448.97;4933899;29;19926;-44
2022/09/28 01:52:45;;;;;;;;;;;;;;;5.35;100.00;96444.16;4931955;29;19938;-44
2022/09/28 01:55:16;;;;;;;;;;;;;;;5.38;100.00;96447.41;4945086;29;19968;-44
2022/09/28 01:57:49;;;;;;;;;;;;;;;5.43;100.00;96445.31;4927361;29;19927;-43
2022/09/28 02:00:17;;;;;;;;;;;;;;;5.45;100.00;96447.81;4991091;28;19930;-44
2022/09/28 02:02:54;;;;;;;;;;;;;;;5.50;100.00;96451.78;4989310;28;19934;-44
2022/09/28 02:05:29;;;;;;;;;;;;;;;5.50;100.00;96456.16;4990654;28;19929;-44
2022/09/28 02:07:58;;;;;;;;;;;;;;;5.49;100.00;96459.69;4986086;28;20369;-44
2022/09/28 02:10:27;;;;;;;;;;;;;;;5.52;100.00;96464.72;4990483;28;20012;-44
2022/09/28 02:12:59;;;;;;;;;;;;;;;5.52;100.00;96465.56;5005565;28;19965;-43
2022/09/28 02:15:30;;;;;;;;;;;;;;;5.48;100.00;96458.03;4988548;28;19926;-44
2022/09/28 02:18:00;;;;;;;;;;;;;;;5.50;100.00;96459.59;4990204;28;19930;-44
2022/09/28 02:20:29;;;;;;;;;;;;;;;5.54;100.00;96468.88;5008052;28;20300;-44
2022/09/28 02:22:57;;;;;;;;;;;;;;;5.58;100.00;96465.13;4984019;28;20016;-44
2022/09/28 02:25:28;;;;;;;;;;;;;;;5.66;100.00;96472.41;4992876;28;19929;-44
2022/09/28 02:27:59;;;;;;;;;;;;;;;5.63;100.00;96473.47;5006159;28;19933;-44
2022/09/28 02:30:29;;;;;;;;;;;;;;;5.68;100.00;96475.75;5004825;28;20023;-44
2022/09/28 02:33:00;;;;;;;;;;;;;;;5.67;100.00;96477.53;4991948;28;19925;-44
2022/09/28 02:35:27;;;;;;;;;;;;;;;5.66;100.00;96475.84;4991649;28;19940;-44
2022/09/28 02:37:54;;;;;;;;;;;;;;;5.69;100.00;96480.03;5007185;28;19948;-44
2022/09/28 02:40:24;;;;;;;;;;;;;;;5.66;100.00;96473.25;4985027;28;19932;-43
2022/09/28 02:42:59;;;;;;;;;;;;;;;5.73;100.00;96476.28;4988139;28;19960;-43
2022/09/28 02:45:41;;;;;;;;;;;;;;;5.67;100.00;96485.38;4989509;28;19933;-43
2022/09/28 02:48:15;;;;;;;;;;;;;;;5.80;100.00;96487.94;4991675;28;19925;-44
2022/09/28 02:50:49;;;;;;;;;;;;;;;5.75;100.00;96487.44;4989846;28;19933;-43
2022/09/28 02:53:31;;;;;;;;;;;;;;;5.80;100.00;96480.94;5006322;28;19972;-45
2022/09/28 02:56:08;;;;;;;;;;;;;;;5.78;100.00;96485.44;5013244;28;19932;-45
2022/09/28 02:58:41;;;;;;;;;;;;;;;5.83;100.00;96475.53;5030837;28;19929;-44
2022/09/28 03:01:18;;;;;;;;;;;;;;;5.82;100.00;96479.06;4984048;28;19936;-44
2022/09/28 03:03:48;;;;;;;;;;;;;;;5.82;100.00;96476.47;4984166;28;19949;-44
2022/09/28 03:06:20;;;;;;;;;;;;;;;5.81;100.00;96477.38;5000985;28;20016;-44
2022/09/28 03:08:53;;;;;;;;;;;;;;;5.79;100.00;96470.63;4990188;28;19926;-45
2022/09/28 03:11:25;;;;;;;;;;;;;;;5.83;100.00;96469.44;4993272;28;20389;-44
2022/09/28 03:13:53;;;;;;;;;;;;;;;5.79;100.00;96466.25;4990168;28;19925;-44
2022/09/28 03:16:26;;;;;;;;;;;;;;;5.73;100.00;96464.03;4991019;28;19925;-43
2022/09/28 03:18:53;;;;;;;;;;;;;;;5.70;100.00;96461.66;4989946;28;19926;-45
2022/09/28 03:21:20;;;;;;;;;;;;;;;5.68;100.00;96455.72;4994214;28;20324;-43
2022/09/28 03:23:48;;;;;;;;;;;;;;;5.69;100.00;96456.56;4981562;28;19991;-44
2022/09/28 03:26:18;;;;;;;;;;;;;;;5.74;100.00;96457.91;4977780;28;19929;-45
2022/09/28 03:28:46;;;;;;;;;;;;;;;5.65;100.00;96460.28;5011295;28;19929;-44
2022/09/28 03:31:18;;;;;;;;;;;;;;;5.61;100.00;96466.66;4992021;28;19925;-44
2022/09/28 03:33:47;;;;;;;;;;;;;;;5.52;100.00;96473.38;4994486;28;19933;-44
2022/09/28 03:36:14;;;;;;;;;;;;;;;5.49;100.00;96470.13;4999511;28;19980;-43
2022/09/28 03:38:42;;;;;;;;;;;;;;;5.39;100.00;96467.31;4990466;28;19960;-46
2022/09/28 03:41:10;;;;;;;;;;;;;;;5.34;100.00;96469.41;4977328;28;20044;-44
2022/09/28 03:43:40;;;;;;;;;;;;;;;5.26;100.00;96482.13;4993092;28;19987;-44
2022/09/28 03:46:08;;;;;;;;;;;;;;;5.12;100.00;96477.03;4991881;28;19934;-44
2022/09/28 03:48:40;;;;;;;;;;;;;;;5.12;100.00;96478.78;4984939;28;20000;-43
2022/09/28 03:51:12;;;;;;;;;;;;;;;5.08;100.00;96483.38;4989769;28;20642;-43
2022/09/28 03:53:40;;;;;;;;;;;;;;;5.12;100.00;96487.44;5005216;28;19987;-47
2022/09/28 03:56:08;;;;;;;;;;;;;;;5.08;100.00;96486.00;5005313;28;20296;-43
2022/09/28 03:58:36;;;;;;;;;;;;;;;5.13;100.00;96483.06;4994158;28;19975;-43
2022/09/28 04:01:04;;;;;;;;;;;;;;;5.19;100.00;96478.28;5009482;28;19992;-43
2022/09/28 04:03:31;;;;;;;;;;;;;;;5.23;100.00;96474.53;5004637;28;19925;-44
2022/09/28 04:05:59;;;;;;;;;;;;;;;5.32;100.00;96475.66;4994030;28;19956;-43
2022/09/28 04:08:28;;;;;;;;;;;;;;;5.30;100.00;96473.19;4989839;28;19930;-44
2022/09/28 04:10:56;;;;;;;;;;;;;;;5.34;100.00;96476.41;4991838;28;19925;-44
2022/09/28 04:13:23;;;;;;;;;;;;;;;5.38;100.00;96483.91;5010073;28;19925;-45
2022/09/28 04:15:55;;;;;;;;;;;;;;;5.46;100.00;96480.78;4989465;28;19926;-45
2022/09/28 04:18:22;;;;;;;;;;;;;;;5.52;100.00;96483.81;4997581;28;20285;-44
2022/09/28 04:21:14;;;;;;;;;;;;;;;5.49;100.00;96486.63;4994602;28;19929;-45
2022/09/28 04:23:59;;;;;;;;;;;;;;;5.50;100.00;96479.63;4986600;28;20201;-45
2022/09/28 04:26:27;;;;;;;;;;;;;;;5.54;100.00;96487.13;4990841;28;19983;-44
2022/09/28 04:31:39;;;;;;;;;;;;;;;5.54;100.00;96479.31;4994830;28;20152;-43
2022/09/28 04:34:07;;;;;;;;;;;;;;;5.53;100.00;96482.88;5009552;28;20411;-44
2022/09/28 04:36:34;;;;;;;;;;;;;;;5.56;100.00;96487.88;4989729;28;19934;-43
2022/09/28 04:39:02;;;;;;;;;;;;;;;5.62;100.00;96482.22;4992295;28;19926;-45
2022/09/28 04:41:31;;;;;;;;;;;;;;;5.54;100.00;96484.53;4988658;28;20103;-43
2022/09/28 04:43:58;;;;;;;;;;;;;;;5.61;100.00;96485.78;4986298;28;19936;-53
2022/09/28 04:46:26;;;;;;;;;;;;;;;5.54;100.00;96481.91;4988275;28;20689;-43
2022/09/28 04:49:23;;;;;;;;;;;;;;;5.50;100.00;96485.69;5004564;28;20288;-44
2022/09/28 04:51:54;;;;;;;;;;;;;;;5.43;100.00;96479.22;5002065;28;20016;-43
2022/09/28 04:54:23;;;;;;;;;;;;;;;5.44;100.00;96483.47;4985356;28;19926;-44
2022/09/28 04:56:51;;;;;;;;;;;;;;;5.41;100.00;96488.94;4996786;28;20354;-45
2022/09/28 04:59:18;;;;;;;;;;;;;;;5.42;100.00;96484.53;4989193;28;20627;-44
2022/09/28 05:01:46;;;;;;;;;;;;;;;5.49;100.00;96496.22;4984558;28;19953;-43
2022/09/28 05:04:32;;;;;;;;;;;;;;;5.57;100.00;96497.38;5004757;28;19925;-43
2022/09/28 05:07:12;;;;;;;;;;;;;;;5.72;100.00;96495.47;5003095;28;20380;-44
2022/09/28 05:09:40;;;;;;;;;;;;;;;5.65;100.00;96497.66;4985524;28;19925;-46
2022/09/28 05:12:08;;;;;;;;;;;;;;;5.77;100.00;96496.00;4987942;28;19972;-46
2022/09/28 05:14:37;;;;;;;;;;;;;;;5.70;100.00;96495.56;4988134;28;20384;-44
2022/09/28 05:17:07;;;;;;;;;;;;;;;5.68;100.00;96491.41;4986190;28;20194;-47
2022/09/28 05:19:47;;;;;;;;;;;;;;;5.72;100.00;96496.31;5001510;28;20779;-44
2022/09/28 10:33:42;;;;;;;;;;;;;;;11.88;97.60;96454.78;6230568;22;2198069;-47
2022/09/28 10:36:11;;;;;;;;;;;;;;;10.77;91.99;96455.53;6304093;22;19918;-43
2022/09/28 10:38:39;;;;;;;;;;;;;;;10.76;97.69;96459.13;6334426;22;19929;-44
2022/09/28 10:41:16;;;;;;;;;;;;;;;11.68;95.54;96450.56;6304422;22;19928;-44
2022/09/28 10:44:04;;;;;;;;;;;;;;;11.82;94.47;96436.94;6306346;22;19923;-43
2022/09/28 10:46:38;;;;;;;;;;;;;;;11.21;90.71;96436.53;6303926;22;20340;-43
2022/09/28 10:49:15;;;;;;;;;;;;;;;10.71;92.33;96437.66;6306396;22;19926;-44
2022/09/28 10:51:46;;;;;;;;;;;;;;;10.37;90.36;96433.72;6306205;22;19983;-46
2022/09/28 10:54:23;;;;;;;;;;;;;;;10.80;91.32;96426.31;6304671;22;20315;-44
2022/09/28 10:56:52;;;;;;;;;;;;;;;11.10;89.15;96423.53;6304766;22;19989;-45
2022/09/28 10:59:48;;;;;;;;;;;;;;;11.68;89.00;96422.38;6296745;22;19919;-46
2022/09/28 11:02:35;;;;;;;;;;;;;;;11.53;90.61;96431.72;6303313;22;20332;-45
2022/09/28 11:05:20;;;;;;;;;;;;;;;11.21;88.52;96431.25;6280285;22;19926;-44
2022/09/28 11:07:48;;;;;;;;;;;;;;;12.00;87.50;96427.31;6304379;22;19923;-46
2022/09/28 11:10:25;;;;;;;;;;;;;;;12.08;85.46;96433.50;6332604;22;19927;-43
2022/09/28 11:12:55;;;;;;;;;;;;;;;11.78;85.95;96433.72;6305459;22;20381;-44
2022/09/28 11:15:27;;;;;;;;;;;;;;;12.00;84.64;96436.03;6277176;22;20337;-44
2022/09/28 11:17:54;;;;;;;;;;;;;;;11.35;85.91;96434.28;6334632;22;19922;-44
2022/09/28 11:20:34;;;;;;;;;;;;;;;11.63;83.25;96427.28;6306813;22;20256;-48
2022/09/28 11:23:16;;;;;;;;;;;;;;;11.76;84.19;96430.44;6305346;22;19918;-46
2022/09/28 11:25:55;;;;;;;;;;;;;;;12.10;82.00;96434.19;6306994;22;19919;-44
2022/09/28 11:28:24;;;;;;;;;;;;;;;11.92;85.06;96433.28;6304606;22;19987;-45
2022/09/28 11:30:53;;;;;;;;;;;;;;;12.21;85.06;96427.88;6306784;22;19925;-44
2022/09/28 11:33:45;;;;;;;;;;;;;;;11.64;84.48;96421.03;6329961;22;19918;-46
2022/09/28 11:36:31;;;;;;;;;;;;;;;11.94;82.42;96420.81;6333554;22;20002;-45
2022/09/28 11:39:05;;;;;;;;;;;;;;;11.79;84.53;96421.41;6303760;22;19918;-44
2022/09/28 11:41:47;;;;;;;;;;;;;;;11.91;85.32;96417.59;6306456;22;20493;-46
2022/09/28 11:44:23;;;;;;;;;;;;;;;11.94;82.69;96418.19;6304042;22;19922;-44
2022/09/28 11:47:09;;;;;;;;;;;;;;;11.53;84.33;96415.94;6306203;22;19919;-44
2022/09/28 11:49:40;;;;;;;;;;;;;;;11.55;82.89;96407.88;6304298;22;20017;-45
2022/09/28 11:52:11;;;;;;;;;;;;;;;11.94;83.37;96405.00;6333853;22;20005;-44
2022/09/28 11:54:42;;;;;;;;;;;;;;;11.56;80.04;96402.47;6306225;22;19949;-44
2022/09/28 11:57:14;;;;;;;;;;;;;;;11.77;83.19;96397.00;6304468;22;19918;-44
2022/09/28 11:59:45;;;;;;;;;;;;;;;12.17;82.73;96393.09;6304695;22;19926;-44
2022/09/28 12:02:15;;;;;;;;;;;;;;;12.41;80.06;96398.59;6305337;22;19918;-46
2022/09/28 12:04:48;;;;;;;;;;;;;;;12.22;81.60;96390.00;6304950;22;19967;-44
2022/09/28 12:07:23;;;;;;;;;;;;;;;12.62;84.25;96388.59;6306600;22;19948;-45
2022/09/28 12:09:54;;;;;;;;;;;;;;;12.19;84.54;96379.75;6305342;22;19946;-45
2022/09/28 12:12:24;;;;;;;;;;;;;;;11.50;84.20;96378.53;6306302;22;20575;-44
2022/09/28 12:14:57;;;;;;;;;;;;;;;11.80;87.78;96386.16;6306317;22;19919;-46
2022/09/28 12:17:26;;;;;;;;;;;;;;;11.84;88.64;96377.84;6331087;22;20336;-47
2022/09/28 12:19:56;;;;;;;;;;;;;;;11.56;87.28;96378.78;6334043;22;19926;-47
2022/09/28 12:22:31;;;;;;;;;;;;;;;11.84;85.42;96377.00;6333862;22;19927;-46
2022/09/28 12:24:59;;;;;;;;;;;;;;;12.35;83.63;96369.38;6331635;22;19918;-46
2022/09/28 12:27:31;;;;;;;;;;;;;;;12.68;83.44;96369.53;6333304;22;20005;-44
2022/09/28 12:30:02;;;;;;;;;;;;;;;12.57;80.49;96372.41;6305700;22;19975;-46
2022/09/28 12:32:34;;;;;;;;;;;;;;;12.68;80.47;96361.63;6329746;22;19922;-44
2022/09/28 12:35:02;;;;;;;;;;;;;;;13.17;79.33;96355.78;6333091;22;19919;-44
2022/09/28 12:37:45;;;;;;;;;;;;;;;12.59;81.62;96367.78;6332993;22;19919;-44
2022/09/28 12:40:25;;;;;;;;;;;;;;;12.29;82.29;96359.41;6331193;22;19954;-46
2022/09/28 12:43:03;;;;;;;;;;;;;;;12.85;81.45;96355.50;6305786;22;19975;-44
2022/09/28 12:45:37;;;;;;;;;;;;;;;13.15;80.81;96357.72;6331749;22;19919;-44
2022/09/28 12:48:22;;;;;;;;;;;;;;;13.09;80.59;96352.25;6331858;22;19919;-45
2022/09/28 12:50:58;;;;;;;;;;;;;;;13.01;80.67;96350.34;6332703;22;19914;-45
2022/09/28 12:53:34;;;;;;;;;;;;;;;12.88;82.34;96360.47;6305472;22;20333;-44
2022/09/28 12:56:03;;;;;;;;;;;;;;;12.27;83.01;96358.75;6330535;22;19923;-44
2022/09/28 12:58:42;;;;;;;;;;;;;;;12.12;83.94;96353.13;6332484;22;20260;-44
2022/09/28 13:01:16;;;;;;;;;;;;;;;12.04;85.47;96352.25;6329777;22;19925;-47
2022/09/28 13:03:57;;;;;;;;;;;;;;;11.51;87.68;96348.59;6332720;22;19923;-45
2022/09/28 13:06:39;;;;;;;;;;;;;;;11.31;91.57;96347.81;6332496;22;19922;-45
2022/09/28 13:09:20;;;;;;;;;;;;;;;11.75;90.10;96338.38;6331948;22;19926;-44
2022/09/28 13:12:06;;;;;;;;;;;;;;;12.47;85.85;96337.34;6332460;22;19943;-45
2022/09/28 13:14:50;;;;;;;;;;;;;;;12.67;85.96;96333.56;6332341;22;20021;-46
2022/09/28 13:17:25;;;;;;;;;;;;;;;12.60;86.89;96332.50;6234731;23;19920;-44
2022/09/28 13:19:57;;;;;;;;;;;;;;;12.78;87.63;96324.59;6236543;23;19919;-44
2022/09/28 13:22:29;;;;;;;;;;;;;;;12.39;86.09;96325.91;6236990;23;19930;-44
2022/09/28 13:24:59;;;;;;;;;;;;;;;12.56;85.00;96320.59;6234029;23;19942;-45
2022/09/28 13:27:29;;;;;;;;;;;;;;;12.48;88.44;96327.66;6234204;23;20265;-44
2022/09/28 13:29:58;;;;;;;;;;;;;;;12.54;89.35;96321.75;6237231;23;19919;-45
2022/09/28 13:32:28;;;;;;;;;;;;;;;12.07;89.39;96323.78;6235734;23;19919;-45
2022/09/28 13:34:56;;;;;;;;;;;;;;;11.93;92.24;96328.72;6236494;23;19919;-45
2022/09/28 13:37:24;;;;;;;;;;;;;;;11.78;90.09;96325.72;6237261;23;20238;-45
2022/09/28 13:39:52;;;;;;;;;;;;;;;11.91;90.53;96323.56;6233386;23;19919;-44
2022/09/28 13:42:34;;;;;;;;;;;;;;;11.65;92.38;96327.88;6235124;23;19924;-47
2022/09/28 13:45:21;;;;;;;;;;;;;;;11.64;94.30;96323.56;6209337;23;19919;-48
2022/09/28 13:47:56;;;;;;;;;;;;;;;11.74;94.91;96327.00;6229941;23;20356;-46
2022/09/28 13:50:29;;;;;;;;;;;;;;;11.75;92.68;96326.00;6233183;23;19930;-47
2022/09/28 13:53:01;;;;;;;;;;;;;;;11.96;93.16;96328.41;6235947;23;19955;-46
2022/09/28 13:55:34;;;;;;;;;;;;;;;12.05;93.74;96323.09;6292245;22;19927;-44
2022/09/28 13:58:06;;;;;;;;;;;;;;;12.13;93.13;96315.28;6299071;22;19919;-45
2022/09/28 14:00:36;;;;;;;;;;;;;;;12.24;91.07;96317.69;6300732;22;19926;-45
2022/09/28 14:03:12;;;;;;;;;;;;;;;12.01;91.51;96321.72;6301562;22;20377;-45
2022/09/28 14:05:47;;;;;;;;;;;;;;;12.12;89.99;96313.59;6300249;22;20149;-44
2022/09/28 14:08:29;;;;;;;;;;;;;;;11.84;94.37;96319.03;6300449;22;19930;-44
2022/09/28 14:10:56;;;;;;;;;;;;;;;11.70;95.84;96317.72;6296529;22;19988;-44
2022/09/28 14:13:47;;;;;;;;;;;;;;;11.65;95.87;96321.78;6303569;22;19930;-45
2022/09/28 14:16:23;;;;;;;;;;;;;;;11.50;96.54;96315.31;6276105;22;19976;-44
2022/09/28 14:18:52;;;;;;;;;;;;;;;11.31;97.57;96319.69;6301706;22;19950;-45
2022/09/28 14:21:28;;;;;;;;;;;;;;;11.29;98.36;96326.09;6302655;22;20241;-49
2022/09/28 14:24:03;;;;;;;;;;;;;;;11.27;99.80;96323.59;6303167;22;19945;-46
2022/09/28 14:26:45;;;;;;;;;;;;;;;11.35;100.00;96323.69;6303238;22;20420;-46
2022/09/28 14:29:20;;;;;;;;;;;;;;;11.04;100.00;96317.03;6284238;22;19919;-46
2022/09/28 14:31:49;;;;;;;;;;;;;;;10.86;100.00;96321.34;6309373;22;20279;-46
2022/09/28 14:34:27;;;;;;;;;;;;;;;10.80;100.00;96307.94;6303999;22;19918;-45
2022/09/28 14:42:28;;;;;;;;;;;;;;;10.66;100.00;96284.69;6333060;22;19968;-44
2022/09/28 14:45:13;;;;;;;;;;;;;;;10.52;100.00;96290.38;6331798;22;19918;-46
2022/09/28 14:47:42;;;;;;;;;;;;;;;10.59;100.00;96294.94;6334901;22;19918;-43
2022/09/28 14:50:21;;;;;;;;;;;;;;;10.52;100.00;96285.09;6332774;22;19927;-44
2022/09/28 14:52:50;;;;;;;;;;;;;;;10.36;100.00;96287.50;6330991;22;19933;-43
2022/09/28 14:55:19;;;;;;;;;;;;;;;10.23;100.00;96284.28;6333867;22;20001;-45
2022/09/28 14:57:52;;;;;;;;;;;;;;;9.74;100.00;96289.66;6331645;22;19926;-49
2022/09/28 15:00:21;;;;;;;;;;;;;;;9.86;100.00;96292.03;6333931;22;19922;-44
2022/09/28 15:02:51;;;;;;;;;;;;;;;9.53;100.00;96284.50;6333771;22;20005;-43
2022/09/28 15:05:23;;;;;;;;;;;;;;;9.38;100.00;96285.84;6330662;22;19919;-44
2022/09/28 15:07:51;;;;;;;;;;;;;;;9.40;100.00;96285.69;6333831;22;19919;-44
2022/09/28 15:10:23;;;;;;;;;;;;;;;9.51;100.00;96285.59;6334344;22;19942;-44
2022/09/28 15:12:51;;;;;;;;;;;;;;;9.37;100.00;96283.34;6330757;22;19926;-43
2022/09/28 15:15:24;;;;;;;;;;;;;;;9.58;100.00;96286.69;6332798;22;19980;-44
2022/09/28 15:17:58;;;;;;;;;;;;;;;9.38;100.00;96291.09;6332778;22;19929;-44
2022/09/28 15:20:28;;;;;;;;;;;;;;;9.34;100.00;96296.72;6330214;22;19949;-45
2022/09/28 15:22:57;;;;;;;;;;;;;;;9.55;100.00;96292.25;6333719;22;20324;-43
2022/09/28 15:25:25;;;;;;;;;;;;;;;9.65;100.00;96298.31;6334413;22;19923;-44
2022/09/28 15:27:54;;;;;;;;;;;;;;;9.58;100.00;96307.69;6331647;22;19919;-46
2022/09/28 15:30:26;;;;;;;;;;;;;;;9.55;100.00;96302.75;6334739;22;19985;-45
2022/09/28 15:34:50;;;;;;;;;;;;;;;9.44;100.00;96289.72;6333729;22;19919;-44
2022/09/28 15:35:44;;;;;;;;;;;;;;;9.29;100.00;96281.34;6306705;22;19987;-44
2022/09/28 15:38:15;;;;;;;;;;;;;;;9.23;100.00;96283.66;6332839;22;19922;-44
2022/09/28 15:40:43;;;;;;;;;;;;;;;9.20;100.00;96279.53;6331095;22;19919;-46
2022/09/28 15:43:22;;;;;;;;;;;;;;;9.13;100.00;96282.78;6331643;22;19918;-43
2022/09/28 15:46:00;;;;;;;;;;;;;;;9.23;100.00;96289.75;6305065;22;19918;-46
2022/09/28 15:48:30;;;;;;;;;;;;;;;9.25;100.00;96284.38;6333922;22;19918;-43
2022/09/28 15:51:09;;;;;;;;;;;;;;;9.06;100.00;96290.34;6333552;22;19922;-44
2022/09/28 15:53:40;;;;;;;;;;;;;;;8.92;100.00;96295.13;6333211;22;19977;-44
2022/09/28 15:56:10;;;;;;;;;;;;;;;8.92;100.00;96293.31;6306196;22;19922;-44
2022/09/28 15:58:38;;;;;;;;;;;;;;;9.01;100.00;96289.09;6333236;22;20006;-44
2022/09/28 16:01:34;;;;;;;;;;;;;;;9.05;100.00;96283.47;6304331;22;19919;-44
2022/09/28 16:04:32;;;;;;;;;;;;;;;9.19;100.00;96280.50;6311063;22;20328;-47
2022/09/28 16:07:20;;;;;;;;;;;;;;;8.79;100.00;96282.22;6333889;22;19923;-44
2022/09/28 16:09:53;;;;;;;;;;;;;;;8.72;100.00;96298.59;6326225;22;20005;-44
2022/09/28 16:12:21;;;;;;;;;;;;;;;8.72;100.00;96299.44;6333509;22;19950;-45
2022/09/28 16:14:49;;;;;;;;;;;;;;;8.78;100.00;96279.75;6302914;22;20001;-45
2022/09/28 16:17:18;;;;;;;;;;;;;;;8.85;100.00;96286.13;6330073;22;19926;-46
2022/09/28 16:19:48;;;;;;;;;;;;;;;8.87;100.00;96281.56;6330899;22;19919;-45
2022/09/28 16:22:20;;;;;;;;;;;;;;;8.84;100.00;96281.81;6331584;22;19919;-46
2022/09/28 16:24:54;;;;;;;;;;;;;;;8.78;100.00;96287.59;6329538;22;20048;-45
2022/09/28 16:27:24;;;;;;;;;;;;;;;8.77;100.00;96302.50;6333697;22;19923;-44
2022/09/28 16:30:04;;;;;;;;;;;;;;;8.79;100.00;96299.75;6330424;22;19919;-44
2022/09/28 16:32:37;;;;;;;;;;;;;;;8.79;100.00;96302.38;6333385;22;19923;-45
2022/09/28 16:35:24;;;;;;;;;;;;;;;8.89;100.00;96303.25;6330848;22;19919;-47
2022/09/28 16:37:56;;;;;;;;;;;;;;;8.83;100.00;96304.59;6334061;22;19938;-46
2022/09/28 16:40:24;;;;;;;;;;;;;;;8.77;100.00;96307.72;6332295;22;19923;-47
2022/09/28 16:42:51;;;;;;;;;;;;;;;8.77;100.00;96309.50;6333801;22;19923;-44
2022/09/28 16:45:20;;;;;;;;;;;;;;;8.72;100.00;96309.06;6305923;22;19993;-45
2022/09/28 16:47:51;;;;;;;;;;;;;;;8.78;100.00;96312.00;6333547;22;19942;-48
2022/09/28 16:50:19;;;;;;;;;;;;;;;8.80;100.00;96317.97;6305566;22;19923;-45
2022/09/28 16:55:34;;;;;;;;;;;;;;;8.73;100.00;96318.59;6331868;22;19925;-45
2022/09/28 16:58:03;;;;;;;;;;;;;;;8.70;100.00;96314.44;6333659;22;20383;-46
2022/09/28 17:00:31;;;;;;;;;;;;;;;8.71;100.00;96318.72;6333901;22;19929;-47
2022/09/28 17:02:58;;;;;;;;;;;;;;;8.61;100.00;96325.72;6330987;22;20355;-44
2022/09/28 17:05:25;;;;;;;;;;;;;;;8.53;100.00;96329.94;6333514;22;19919;-45
2022/09/28 17:07:59;;;;;;;;;;;;;;;8.56;100.00;96337.53;6334036;22;19919;-45
2022/09/28 17:10:29;;;;;;;;;;;;;;;8.42;100.00;96346.53;6331830;22;19958;-45
2022/09/28 17:12:56;;;;;;;;;;;;;;;8.51;100.00;96353.63;6333920;22;19926;-44
2022/09/28 17:15:24;;;;;;;;;;;;;;;8.46;100.00;96341.88;6333696;22;20304;-44
2022/09/28 17:17:52;;;;;;;;;;;;;;;8.51;100.00;96340.53;6301714;22;19919;-44
2022/09/28 17:20:21;;;;;;;;;;;;;;;8.37;100.00;96360.97;6331651;22;19961;-45
2022/09/28 17:22:49;;;;;;;;;;;;;;;8.32;100.00;96374.44;6303124;22;20466;-44
2022/09/28 17:25:17;;;;;;;;;;;;;;;8.16;100.00;96381.91;6330343;22;19926;-49
2022/09/28 17:27:46;;;;;;;;;;;;;;;8.13;100.00;96381.28;6332196;22;19922;-45
2022/09/28 17:30:14;;;;;;;;;;;;;;;7.91;100.00;96380.38;6332424;22;20332;-49
2022/09/28 17:32:44;;;;;;;;;;;;;;;7.68;100.00;96364.81;6328886;22;19926;-55
2022/09/28 17:35:11;;;;;;;;;;;;;;;7.55;100.00;96400.75;6329675;22;20427;-50
2022/09/28 17:37:39;;;;;;;;;;;;;;;7.45;100.00;96868.97;6329798;22;20336;-54
2022/09/28 17:40:14;;;;;;;;;;;;;;;7.41;100.00;96854.44;6330642;22;19929;-58
2022/09/28 17:42:42;;;;;;;;;;;;;;;7.35;100.00;96843.56;6332203;22;19918;-58
2022/09/28 17:45:09;;;;;;;;;;;;;;;7.51;100.00;96881.66;6333131;22;19919;-57
2022/09/28 17:47:37;;;;;;;;;;;;;;;7.41;100.00;96840.50;6331058;22;19976;-57
2022/09/28 17:50:14;;;;;;;;;;;;;;;7.39;100.00;96814.44;6327663;22;19925;-58
2022/09/28 17:52:41;;;;;;;;;;;;;;;7.53;100.00;96850.94;6304137;22;19918;-58
2022/09/28 17:55:09;;;;;;;;;;;;;;;7.05;100.00;96694.03;6332170;22;19926;-58
2022/09/28 17:57:36;;;;;;;;;;;;;;;6.94;100.00;96645.13;6331843;22;20259;-58
2022/09/28 18:00:05;;;;;;;;;;;;;;;6.99;100.00;96669.16;6332975;22;19925;-56
2022/09/28 18:02:32;;;;;;;;;;;;;;;6.99;100.00;96648.22;6333308;22;20001;-52
2022/09/28 18:05:02;;;;;;;;;;;;;;;7.03;100.00;96654.94;6329510;22;19918;-56
2022/09/28 18:07:30;;;;;;;;;;;;;;;6.99;100.00;96634.34;6304540;22;19918;-56
2022/09/28 18:09:58;;;;;;;;;;;;;;;6.94;100.00;96618.97;6332306;22;19922;-56
2022/09/28 18:12:25;;;;;;;;;;;;;;;7.88;100.00;96901.69;6330001;22;19929;-57
2022/09/28 18:14:52;;;;;;;;;;;;;;;8.00;100.00;96931.38;6332919;22;20328;-56
2022/09/28 18:17:20;;;;;;;;;;;;;;;7.77;100.00;96853.63;6304987;22;19919;-54
2022/09/28 18:19:48;;;;;;;;;;;;;;;7.60;100.00;96788.53;6330525;22;20316;-54
2022/09/28 18:22:15;;;;;;;;;;;;;;;8.07;100.00;96930.84;6332174;22;19987;-49
2022/09/28 18:24:42;;;;;;;;;;;;;;;8.04;100.00;96912.72;6305453;22;20002;-50
2022/09/28 18:27:10;;;;;;;;;;;;;;;7.46;100.00;96729.34;6332785;22;19919;-50
2022/09/28 18:29:37;;;;;;;;;;;;;;;7.39;100.00;96691.50;6302920;22;20308;-51
2022/09/28 18:32:04;;;;;;;;;;;;;;;7.28;100.00;96649.56;6332890;22;19994;-50